Time;durP1;ratioP1;P1;durP2;ratioP2;P2;SDS_P1;SDS_P2;PMS_P1;PMS_P2;Temp;Humidity;BMP_temperature;BMP_pressure;BME280_temperature;BME280_humidity;BME280_pressure;Samples;Min_cycle;Max_cycle;Signal;HPM_P1;HPM_P2
2022/12/08 00:00:14;;;;;;;3.88;3.47;;;15.80;49.20;;;;;;4995831;28;20218;-67
2022/12/08 00:02:43;;;;;;;4.30;3.55;;;15.80;49.30;;;;;;4995747;28;20221;-66
2022/12/08 00:10:42;;;;;;;5.90;3.92;;;15.70;49.30;;;;;;4995519;28;20193;-66
2022/12/08 00:13:09;;;;;;;3.60;3.30;;;15.70;49.40;;;;;;4995565;28;20197;-66
2022/12/08 00:15:36;;;;;;;4.65;3.45;;;15.70;49.50;;;;;;4995488;28;20201;-66
2022/12/08 00:18:03;;;;;;;5.03;3.67;;;15.60;49.30;;;;;;4995820;28;20207;-66
2022/12/08 00:20:30;;;;;;;5.25;3.65;;;15.60;49.40;;;;;;4995560;28;20222;-67
2022/12/08 00:22:57;;;;;;;3.83;3.42;;;15.70;49.60;;;;;;4995017;28;20615;-66
2022/12/08 00:25:26;;;;;;;4.45;3.90;;;15.60;49.30;;;;;;4995058;28;20205;-66
2022/12/08 00:27:55;;;;;;;4.53;4.13;;;15.60;49.40;;;;;;4994925;28;20301;-66
2022/12/08 00:30:22;;;;;;;4.25;3.85;;;15.60;49.40;;;;;;4994813;28;20221;-66
2022/12/08 00:32:49;;;;;;;3.80;3.38;;;15.60;49.50;;;;;;4979202;28;20201;-66
2022/12/08 00:35:16;;;;;;;4.00;3.40;;;15.60;49.30;;;;;;4996276;28;20240;-67
2022/12/08 00:37:43;;;;;;;5.47;4.00;;;15.60;49.40;;;;;;4994829;28;20679;-66
2022/12/08 00:40:10;;;;;;;5.07;3.72;;;15.50;49.20;;;;;;4994783;28;20232;-66
2022/12/08 00:42:37;;;;;;;3.92;3.55;;;15.50;49.40;;;;;;4994668;28;20224;-66
2022/12/08 00:45:07;;;;;;;4.22;3.70;;;15.50;49.40;;;;;;4994790;28;20201;-66
2022/12/08 00:47:34;;;;;;;3.50;3.20;;;15.50;49.40;;;;;;4996496;28;20208;-66
2022/12/08 00:50:01;;;;;;;4.15;3.30;;;15.50;49.40;;;;;;4995920;28;20218;-66
2022/12/08 00:52:28;;;;;;;4.10;3.58;;;15.50;49.40;;;;;;4996114;28;20240;-66
2022/12/08 00:54:55;;;;;;;3.90;3.50;;;15.50;49.30;;;;;;4994642;28;20202;-66
2022/12/08 00:57:22;;;;;;;4.63;3.67;;;15.40;49.20;;;;;;4994644;28;20205;-66
2022/12/08 00:59:49;;;;;;;3.65;3.28;;;15.40;49.20;;;;;;4995744;28;20248;-66
2022/12/08 01:02:18;;;;;;;5.10;3.60;;;15.50;49.20;;;;;;4994524;28;20271;-66
2022/12/08 01:04:46;;;;;;;4.15;3.40;;;15.40;49.20;;;;;;4994542;28;20206;-66
2022/12/08 01:07:13;;;;;;;3.95;3.55;;;15.40;49.20;;;;;;4994775;28;20201;-66
2022/12/08 01:09:40;;;;;;;3.80;3.40;;;15.40;49.30;;;;;;4996717;28;20204;-66
2022/12/08 01:12:07;;;;;;;4.07;3.55;;;15.30;49.40;;;;;;4995003;28;20193;-66
2022/12/08 01:14:34;;;;;;;4.07;3.55;;;15.30;49.40;;;;;;4995057;28;20196;-66
2022/12/08 01:17:02;;;;;;;3.33;2.97;;;15.30;49.30;;;;;;4994189;28;20575;-67
2022/12/08 01:19:30;;;;;;;3.85;3.35;;;15.30;49.30;;;;;;4994198;28;20228;-66
2022/12/08 01:21:57;;;;;;;4.03;3.20;;;15.20;49.40;;;;;;4994001;28;20280;-66
2022/12/08 01:24:24;;;;;;;3.80;3.38;;;15.30;49.10;;;;;;4994583;28;20241;-66
2022/12/08 01:26:51;;;;;;;3.30;3.00;;;15.20;49.30;;;;;;4994343;28;20412;-66
2022/12/08 01:29:18;;;;;;;3.58;3.28;;;15.20;49.40;;;;;;4994167;28;20502;-66
2022/12/08 01:31:46;;;;;;;3.95;3.47;;;15.20;49.40;;;;;;4994197;28;20233;-66
2022/12/08 01:34:13;;;;;;;3.83;3.53;;;15.20;49.30;;;;;;4993927;28;20198;-66
2022/12/08 01:36:43;;;;;;;3.97;3.58;;;15.20;49.40;;;;;;4994388;28;20240;-66
2022/12/08 01:39:17;;;;;;;3.55;3.25;;;15.10;49.40;;;;;;4993909;28;20241;-66
2022/12/08 01:41:45;;;;;;;4.55;3.35;;;15.10;49.40;;;;;;4993845;28;20644;-66
2022/12/08 01:44:51;;;;;;;3.40;3.10;;;15.10;49.50;;;;;;4993675;28;20688;-67
2022/12/08 01:47:18;;;;;;;4.07;3.20;;;15.10;49.40;;;;;;4994860;28;20548;-66
2022/12/08 01:49:46;;;;;;;4.13;3.20;;;15.10;49.50;;;;;;4995098;28;20213;-66
2022/12/08 01:52:16;;;;;;;3.70;3.20;;;15.00;49.50;;;;;;4999328;28;20216;-66
2022/12/08 01:54:45;;;;;;;3.90;3.50;;;15.00;49.60;;;;;;4993592;28;20560;-67
2022/12/08 01:57:14;;;;;;;4.22;3.55;;;15.00;49.40;;;;;;4993346;28;20206;-66
2022/12/08 01:59:42;;;;;;;3.90;3.22;;;15.00;49.60;;;;;;4993141;28;20220;-66
2022/12/08 02:02:10;;;;;;;3.67;3.30;;;14.90;49.60;;;;;;4993535;28;20198;-66
2022/12/08 02:04:37;;;;;;;3.72;3.42;;;14.90;49.50;;;;;;4993309;28;20217;-66
2022/12/08 02:07:05;;;;;;;3.80;3.40;;;14.90;49.60;;;;;;4993329;28;20264;-66
2022/12/08 02:09:33;;;;;;;3.97;3.58;;;14.80;49.50;;;;;;4992948;28;20221;-66
2022/12/08 02:12:00;;;;;;;4.45;3.60;;;14.80;49.50;;;;;;4993410;28;20570;-66
2022/12/08 02:14:27;;;;;;;4.18;3.35;;;14.80;49.50;;;;;;4994191;28;20197;-66
2022/12/08 02:16:56;;;;;;;3.40;3.10;;;14.80;49.60;;;;;;4993652;28;20201;-66
2022/12/08 02:19:49;;;;;;;4.05;3.40;;;14.80;49.60;;;;;;4992981;28;20217;-66
2022/12/08 02:22:19;;;;;;;4.65;3.40;;;14.70;49.60;;;;;;4994318;28;20557;-66
2022/12/08 02:24:49;;;;;;;3.72;3.30;;;14.80;49.70;;;;;;4994009;28;20214;-66
2022/12/08 02:27:42;;;;;;;3.88;3.47;;;14.70;49.80;;;;;;5013779;28;20268;-66
2022/12/08 02:30:19;;;;;;;4.95;3.58;;;14.70;49.60;;;;;;5013693;28;20216;-66
2022/12/08 02:33:13;;;;;;;3.78;3.35;;;14.70;49.60;;;;;;5012480;28;20204;-66
2022/12/08 02:35:44;;;;;;;3.13;2.83;;;14.70;49.80;;;;;;5012329;28;20192;-66
2022/12/08 02:38:15;;;;;;;3.67;3.35;;;14.60;49.60;;;;;;5012437;28;20567;-66
2022/12/08 02:40:45;;;;;;;3.92;3.40;;;14.60;49.70;;;;;;5012830;28;20209;-66
2022/12/08 02:43:14;;;;;;;3.50;2.95;;;14.60;49.50;;;;;;5013648;28;20212;-66
2022/12/08 02:45:43;;;;;;;3.80;3.50;;;14.60;49.60;;;;;;5012473;28;20212;-66
2022/12/08 02:48:10;;;;;;;3.53;3.22;;;14.60;49.90;;;;;;5012235;28;20200;-66
2022/12/08 02:50:37;;;;;;;3.50;3.20;;;14.60;49.60;;;;;;5013574;28;20189;-66
2022/12/08 02:53:05;;;;;;;3.42;3.08;;;14.60;49.80;;;;;;5012487;28;20193;-66
2022/12/08 02:55:37;;;;;;;3.70;3.40;;;14.60;50.00;;;;;;5013478;28;20203;-66
2022/12/08 02:58:17;;;;;;;3.70;3.40;;;14.60;49.80;;;;;;5012492;28;20267;-66
2022/12/08 03:00:51;;;;;;;3.72;3.13;;;14.50;49.60;;;;;;5012420;28;20192;-66
2022/12/08 03:03:22;;;;;;;3.45;3.08;;;14.50;49.80;;;;;;5012032;28;20595;-66
2022/12/08 03:05:57;;;;;;;3.72;3.42;;;14.50;49.80;;;;;;5012095;28;20553;-66
2022/12/08 03:08:28;;;;;;;3.97;3.58;;;14.50;49.70;;;;;;5011998;28;20193;-66
2022/12/08 03:10:57;;;;;;;3.92;3.63;;;14.50;49.70;;;;;;5013861;28;20272;-66
2022/12/08 03:13:25;;;;;;;3.22;3.03;;;14.50;49.70;;;;;;5016215;28;20212;-66
2022/12/08 03:15:53;;;;;;;3.47;3.17;;;14.50;49.80;;;;;;5017163;28;20284;-66
2022/12/08 03:18:20;;;;;;;3.83;3.53;;;14.50;49.80;;;;;;5015869;28;20193;-66
2022/12/08 03:20:47;;;;;;;3.50;3.20;;;14.40;49.80;;;;;;5015934;28;20197;-66
2022/12/08 03:23:15;;;;;;;3.90;3.40;;;14.40;49.90;;;;;;5015711;28;20251;-66
2022/12/08 03:25:44;;;;;;;3.47;3.17;;;14.40;49.80;;;;;;5015722;28;20203;-66
2022/12/08 03:28:12;;;;;;;3.60;3.30;;;14.40;49.80;;;;;;5016117;28;20197;-66
2022/12/08 03:30:39;;;;;;;3.92;3.53;;;14.40;50.50;;;;;;5016107;28;20204;-66
2022/12/08 03:33:08;;;;;;;3.80;3.47;;;14.40;49.70;;;;;;5015603;28;20212;-66
2022/12/08 03:35:35;;;;;;;4.43;3.47;;;14.40;50.00;;;;;;5015689;28;20192;-66
2022/12/08 03:38:03;;;;;;;3.70;3.40;;;14.40;50.00;;;;;;5016873;28;20726;-66
2022/12/08 03:40:30;;;;;;;3.63;3.33;;;14.40;50.10;;;;;;5016331;28;20564;-66
2022/12/08 03:42:58;;;;;;;3.38;3.08;;;14.30;49.70;;;;;;5012100;28;20205;-66
2022/12/08 03:45:25;;;;;;;3.17;2.97;;;14.30;50.00;;;;;;5015440;28;20209;-66
2022/12/08 03:47:52;;;;;;;4.43;3.45;;;14.30;49.90;;;;;;5015428;28;20227;-66
2022/12/08 03:50:19;;;;;;;3.80;3.50;;;14.30;50.00;;;;;;5015161;28;20227;-66
2022/12/08 03:52:46;;;;;;;3.60;3.30;;;14.30;50.00;;;;;;5015327;28;20203;-66
2022/12/08 03:55:13;;;;;;;3.50;3.20;;;14.30;49.80;;;;;;5016495;28;20195;-66
2022/12/08 03:57:40;;;;;;;3.60;3.30;;;14.30;50.00;;;;;;5017005;28;20193;-66
2022/12/08 04:00:12;;;;;;;3.80;3.50;;;14.20;49.80;;;;;;5017240;28;20763;-66
2022/12/08 04:02:39;;;;;;;3.20;2.90;;;14.20;49.70;;;;;;5016618;28;20185;-66
2022/12/08 04:05:06;;;;;;;4.07;3.72;;;14.20;50.30;;;;;;5015125;28;20243;-66
2022/12/08 04:07:34;;;;;;;4.32;3.63;;;14.20;49.80;;;;;;5016317;28;20723;-66
2022/12/08 04:10:06;;;;;;;3.78;3.47;;;14.20;49.70;;;;;;5016273;28;20209;-66
2022/12/08 04:12:33;;;;;;;3.67;3.38;;;14.20;49.90;;;;;;5015681;28;20192;-66
2022/12/08 04:15:00;;;;;;;3.55;3.25;;;14.20;49.80;;;;;;5015204;28;20206;-66
2022/12/08 04:17:29;;;;;;;4.00;3.60;;;14.20;50.20;;;;;;5015193;28;20197;-66
2022/12/08 04:19:56;;;;;;;3.65;3.35;;;14.20;50.00;;;;;;5015036;28;20209;-66
2022/12/08 04:22:23;;;;;;;4.38;3.97;;;14.10;49.90;;;;;;5014411;28;20224;-66
2022/12/08 04:24:49;;;;;;;4.07;3.67;;;14.10;49.90;;;;;;5014761;28;20220;-66
2022/12/08 04:27:16;;;;;;;4.15;3.75;;;14.10;49.80;;;;;;5016052;28;20201;-66
2022/12/08 04:29:44;;;;;;;3.95;3.58;;;14.10;49.90;;;;;;5014548;28;20227;-66
2022/12/08 04:32:11;;;;;;;4.80;3.70;;;14.10;49.90;;;;;;5014481;28;20664;-66
2022/12/08 04:34:39;;;;;;;3.58;3.28;;;14.10;49.80;;;;;;5014426;28;20189;-66
2022/12/08 04:37:06;;;;;;;3.63;3.33;;;14.20;49.70;;;;;;5014957;28;20207;-66
2022/12/08 04:39:33;;;;;;;3.60;3.30;;;14.20;49.80;;;;;;5014332;28;20321;-66
2022/12/08 04:42:01;;;;;;;3.65;3.35;;;14.20;49.80;;;;;;5014514;28;20711;-66
2022/12/08 04:44:28;;;;;;;3.60;3.30;;;14.20;49.60;;;;;;5014419;28;20657;-66
2022/12/08 04:46:56;;;;;;;3.78;3.47;;;14.20;49.50;;;;;;5014482;28;20213;-66
2022/12/08 04:49:23;;;;;;;4.03;3.60;;;14.20;49.50;;;;;;5014383;28;20221;-66
2022/12/08 04:51:51;;;;;;;3.55;3.25;;;14.20;49.60;;;;;;5014744;28;20200;-67
2022/12/08 04:54:18;;;;;;;4.15;3.72;;;14.20;49.30;;;;;;5011914;28;20204;-66
2022/12/08 04:56:45;;;;;;;4.47;3.63;;;14.30;49.30;;;;;;5012138;28;20673;-66
2022/12/08 04:59:12;;;;;;;3.72;3.42;;;14.30;49.00;;;;;;5006740;28;20603;-66
2022/12/08 05:01:40;;;;;;;3.92;3.53;;;14.30;49.10;;;;;;5015212;28;20259;-66
2022/12/08 05:04:07;;;;;;;3.90;3.60;;;14.30;48.90;;;;;;4998108;28;20239;-66
2022/12/08 05:06:34;;;;;;;3.90;3.60;;;14.30;48.90;;;;;;5010296;28;20209;-66
2022/12/08 05:09:03;;;;;;;5.40;4.10;;;14.30;49.50;;;;;;5014249;28;20275;-66
2022/12/08 05:11:31;;;;;;;3.78;3.47;;;14.30;48.60;;;;;;5008541;28;20372;-66
2022/12/08 05:13:58;;;;;;;4.10;3.80;;;14.30;49.10;;;;;;4995831;28;20200;-66
2022/12/08 05:16:26;;;;;;;5.00;3.60;;;14.30;49.60;;;;;;5008884;28;20258;-66
2022/12/08 05:18:53;;;;;;;4.10;3.63;;;14.40;51.00;;;;;;5014144;28;20224;-66
2022/12/08 05:21:20;;;;;;;4.25;3.78;;;14.40;49.40;;;;;;5010653;28;20255;-66
2022/12/08 05:23:48;;;;;;;3.67;3.22;;;14.40;49.70;;;;;;5012872;28;20630;-66
2022/12/08 05:26:17;;;;;;;5.22;4.82;;;14.40;49.50;;;;;;5010128;28;20205;-66
2022/12/08 05:28:43;;;;;;;4.65;4.25;;;14.40;50.10;;;;;;5003397;28;20233;-66
2022/12/08 05:31:11;;;;;;;4.38;4.00;;;14.40;49.10;;;;;;5013692;28;20253;-66
2022/12/08 05:33:38;;;;;;;5.05;4.40;;;14.40;49.00;;;;;;5013164;28;20209;-66
2022/12/08 05:36:05;;;;;;;4.43;4.00;;;14.40;48.80;;;;;;4994341;28;20884;-67
2022/12/08 05:38:32;;;;;;;5.13;4.07;;;14.40;49.00;;;;;;5007102;28;20711;-66
2022/12/08 05:41:00;;;;;;;4.13;3.72;;;14.50;49.30;;;;;;4999280;28;20271;-66
2022/12/08 05:43:28;;;;;;;4.03;3.70;;;14.50;49.40;;;;;;5011213;28;20279;-66
2022/12/08 05:45:56;;;;;;;3.85;3.55;;;14.50;48.90;;;;;;5013139;28;20251;-66
2022/12/08 05:48:23;;;;;;;3.90;3.53;;;14.60;49.30;;;;;;5013687;28;20247;-66
2022/12/08 05:50:50;;;;;;;4.15;3.75;;;14.60;49.40;;;;;;5014981;28;20204;-66
2022/12/08 05:53:18;;;;;;;3.58;3.28;;;14.60;48.50;;;;;;5013167;28;20197;-66
2022/12/08 05:55:45;;;;;;;6.13;4.28;;;14.60;48.20;;;;;;5012837;28;20292;-66
2022/12/08 05:58:13;;;;;;;4.22;3.60;;;14.60;47.60;;;;;;5013234;28;20667;-66
2022/12/08 06:00:42;;;;;;;4.18;3.78;;;14.60;48.00;;;;;;5013360;28;20247;-66
2022/12/08 06:03:09;;;;;;;3.95;3.60;;;14.70;48.10;;;;;;4995359;28;20555;-66
2022/12/08 06:05:36;;;;;;;4.00;3.67;;;14.70;48.30;;;;;;4991875;28;20241;-66
2022/12/08 06:08:03;;;;;;;4.03;3.53;;;14.70;48.20;;;;;;4991249;28;20250;-66
2022/12/08 06:10:30;;;;;;;4.60;3.65;;;14.70;48.50;;;;;;4993266;28;20220;-66
2022/12/08 06:12:58;;;;;;;3.97;3.50;;;14.70;48.50;;;;;;4993408;28;20256;-66
2022/12/08 06:15:25;;;;;;;4.25;3.70;;;14.70;48.10;;;;;;4992033;28;20641;-66
2022/12/08 06:17:53;;;;;;;3.97;3.40;;;14.70;48.30;;;;;;4994662;28;20196;-66
2022/12/08 06:20:20;;;;;;;3.92;3.47;;;14.70;48.10;;;;;;4993553;28;20232;-66
2022/12/08 06:22:47;;;;;;;4.15;3.40;;;14.70;48.40;;;;;;4993432;28;20671;-66
2022/12/08 06:25:14;;;;;;;4.60;3.67;;;14.70;48.30;;;;;;4993534;28;20221;-66
2022/12/08 06:27:41;;;;;;;5.25;4.40;;;14.70;48.30;;;;;;4993328;28;20660;-66
2022/12/08 06:30:09;;;;;;;4.68;3.83;;;14.70;48.20;;;;;;4993689;28;20228;-66
2022/12/08 06:32:36;;;;;;;4.18;3.55;;;14.70;48.20;;;;;;4993520;28;20303;-66
2022/12/08 06:35:05;;;;;;;4.82;3.83;;;14.70;48.10;;;;;;4993841;28;20216;-66
2022/12/08 06:37:32;;;;;;;4.18;3.72;;;14.70;48.10;;;;;;4993560;28;20201;-66
2022/12/08 06:39:59;;;;;;;4.38;3.70;;;14.70;47.70;;;;;;4994180;28;20217;-66
2022/12/08 06:42:45;;;;;;;4.70;4.20;;;14.70;47.90;;;;;;4994793;28;20196;-66
2022/12/08 06:45:13;;;;;;;4.53;4.10;;;14.70;47.80;;;;;;4993746;28;20216;-66
2022/12/08 06:47:42;;;;;;;4.10;3.70;;;14.70;47.80;;;;;;4993307;28;20667;-66
2022/12/08 06:50:11;;;;;;;4.05;3.65;;;14.70;47.70;;;;;;4993217;28;20213;-66
2022/12/08 06:52:39;;;;;;;6.05;4.00;;;14.70;47.80;;;;;;4993380;28;20224;-66
2022/12/08 06:55:08;;;;;;;4.43;3.83;;;14.70;47.70;;;;;;4993185;28;20638;-66
2022/12/08 06:57:35;;;;;;;4.30;3.90;;;14.70;47.70;;;;;;4994005;28;20259;-66
2022/12/08 07:00:03;;;;;;;3.50;3.20;;;14.70;47.70;;;;;;4992959;28;20228;-66
2022/12/08 07:02:30;;;;;;;3.92;3.50;;;14.70;47.90;;;;;;4993113;28;20256;-66
2022/12/08 07:04:57;;;;;;;3.63;3.22;;;14.80;48.00;;;;;;4992733;28;20360;-66
2022/12/08 07:07:26;;;;;;;3.95;3.55;;;14.70;48.00;;;;;;4992824;28;20665;-66
2022/12/08 07:09:53;;;;;;;4.20;3.63;;;14.70;48.10;;;;;;4992668;28;20225;-66
2022/12/08 07:12:20;;;;;;;4.25;3.85;;;14.70;47.90;;;;;;4992710;28;20225;-66
2022/12/08 07:14:47;;;;;;;3.80;3.50;;;14.70;47.80;;;;;;4994000;28;20613;-66
2022/12/08 07:17:14;;;;;;;3.70;3.33;;;14.80;48.10;;;;;;4992433;28;20201;-67
2022/12/08 07:19:41;;;;;;;4.70;3.63;;;14.70;47.90;;;;;;4992454;28;20248;-66
2022/12/08 07:22:08;;;;;;;4.00;3.60;;;14.70;47.90;;;;;;4992437;28;20205;-66
2022/12/08 07:24:36;;;;;;;3.95;3.50;;;14.70;48.10;;;;;;4992362;28;20320;-66
2022/12/08 07:27:03;;;;;;;4.20;3.80;;;14.70;47.60;;;;;;4992881;28;20205;-66
2022/12/08 07:29:30;;;;;;;4.05;3.67;;;14.70;47.30;;;;;;4992423;28;20209;-66
2022/12/08 07:31:57;;;;;;;4.00;3.47;;;14.80;47.80;;;;;;4992403;28;20205;-66
2022/12/08 07:34:25;;;;;;;4.18;3.78;;;14.80;48.00;;;;;;4992191;28;20256;-66
2022/12/08 07:36:52;;;;;;;5.50;3.67;;;14.80;47.70;;;;;;4992346;28;20201;-66
2022/12/08 07:39:19;;;;;;;4.40;4.00;;;14.80;47.90;;;;;;4992212;28;20222;-66
2022/12/08 07:41:48;;;;;;;4.28;3.17;;;14.80;47.60;;;;;;4992252;28;20204;-66
2022/12/08 07:44:15;;;;;;;3.83;3.42;;;14.80;47.90;;;;;;4992034;28;20204;-66
2022/12/08 07:46:42;;;;;;;4.43;3.35;;;14.80;47.70;;;;;;4992154;28;20213;-66
2022/12/08 07:49:09;;;;;;;3.80;3.50;;;14.80;47.60;;;;;;4993223;28;20221;-66
2022/12/08 07:51:37;;;;;;;4.18;3.78;;;14.80;47.60;;;;;;4992465;28;20614;-66
2022/12/08 07:54:04;;;;;;;4.50;3.67;;;14.80;47.40;;;;;;4993135;28;20190;-66
2022/12/08 07:56:31;;;;;;;4.28;3.67;;;14.90;47.60;;;;;;4992902;28;20601;-66
2022/12/08 07:59:01;;;;;;;3.38;3.08;;;14.80;47.40;;;;;;4994647;28;20232;-66
2022/12/08 08:01:29;;;;;;;4.00;3.17;;;14.90;47.70;;;;;;4995399;28;20208;-66
2022/12/08 08:03:57;;;;;;;4.15;3.30;;;14.90;47.60;;;;;;4995370;28;20197;-66
2022/12/08 08:06:24;;;;;;;4.45;3.97;;;14.90;47.50;;;;;;4996582;28;20587;-66
2022/12/08 08:08:51;;;;;;;4.13;3.55;;;14.90;47.10;;;;;;4996106;28;20213;-66
2022/12/08 08:11:18;;;;;;;4.03;3.42;;;15.00;47.50;;;;;;4995236;28;20202;-66
2022/12/08 08:13:45;;;;;;;3.30;3.00;;;14.90;47.40;;;;;;4995223;28;20653;-66
2022/12/08 08:16:14;;;;;;;3.72;3.40;;;15.00;47.30;;;;;;4996304;28;20198;-66
2022/12/08 08:18:42;;;;;;;3.55;3.25;;;15.00;47.20;;;;;;4995172;28;20217;-66
2022/12/08 08:21:09;;;;;;;3.83;3.50;;;15.00;47.80;;;;;;4996726;28;20240;-66
2022/12/08 08:23:37;;;;;;;4.07;3.70;;;15.00;47.20;;;;;;4995034;28;20197;-66
2022/12/08 08:26:04;;;;;;;4.00;3.60;;;15.00;47.10;;;;;;4995100;28;20222;-66
2022/12/08 08:28:31;;;;;;;3.92;3.45;;;15.00;47.30;;;;;;4995189;28;20205;-66
2022/12/08 08:30:59;;;;;;;4.07;3.67;;;15.00;46.90;;;;;;4994899;28;20194;-66
2022/12/08 08:33:27;;;;;;;4.35;3.95;;;15.10;47.00;;;;;;4994885;28;20256;-66
2022/12/08 08:35:55;;;;;;;4.25;3.85;;;15.00;46.60;;;;;;4994897;28;20226;-66
2022/12/08 08:38:22;;;;;;;3.80;3.50;;;15.10;46.70;;;;;;4994939;28;20217;-66
2022/12/08 08:40:49;;;;;;;4.40;3.78;;;15.00;46.60;;;;;;4996811;28;20212;-66
2022/12/08 08:43:28;;;;;;;4.85;4.40;;;15.00;46.60;;;;;;4994957;28;20221;-66
2022/12/08 08:45:57;;;;;;;5.13;4.20;;;15.10;46.40;;;;;;4995170;28;20235;-66
2022/12/08 08:48:24;;;;;;;4.32;3.72;;;15.10;46.60;;;;;;4994801;28;20564;-66
2022/12/08 08:50:53;;;;;;;5.32;4.00;;;15.10;46.30;;;;;;4994678;28;20197;-66
2022/12/08 08:53:20;;;;;;;5.03;4.20;;;15.10;46.30;;;;;;4995910;28;20212;-66
2022/12/08 08:55:47;;;;;;;4.80;4.30;;;15.10;46.40;;;;;;4995443;28;20197;-66
2022/12/08 08:58:16;;;;;;;4.22;3.83;;;15.10;46.60;;;;;;4995258;28;20205;-66
2022/12/08 09:00:43;;;;;;;4.50;3.72;;;15.10;46.30;;;;;;4994685;28;20201;-66
2022/12/08 09:03:10;;;;;;;6.45;4.15;;;15.20;46.40;;;;;;4994627;28;20277;-66
2022/12/08 09:05:38;;;;;;;4.03;3.58;;;15.20;46.60;;;;;;4996172;28;20775;-66
2022/12/08 09:08:07;;;;;;;5.03;4.53;;;15.20;46.90;;;;;;4995390;28;20205;-66
2022/12/08 09:10:34;;;;;;;4.10;3.80;;;15.20;46.70;;;;;;4993540;28;20609;-66
2022/12/08 09:13:01;;;;;;;4.63;4.22;;;15.20;46.70;;;;;;4994831;28;20237;-66
2022/12/08 09:15:28;;;;;;;4.60;4.20;;;15.20;46.40;;;;;;4995018;28;20197;-66
2022/12/08 09:17:55;;;;;;;5.38;4.07;;;15.20;46.60;;;;;;4995027;28;20208;-66
2022/12/08 09:20:23;;;;;;;4.55;4.03;;;15.20;46.70;;;;;;4994931;28;20221;-66
2022/12/08 09:22:50;;;;;;;4.55;4.10;;;15.20;46.80;;;;;;4995965;28;20680;-66
2022/12/08 09:25:18;;;;;;;4.15;3.75;;;15.20;46.70;;;;;;4996517;28;20252;-66
2022/12/08 09:27:45;;;;;;;4.70;4.20;;;15.30;46.80;;;;;;4995011;28;20202;-66
2022/12/08 09:30:13;;;;;;;4.38;3.97;;;15.30;46.50;;;;;;4994760;28;20284;-66
2022/12/08 09:32:40;;;;;;;5.03;3.80;;;15.30;46.70;;;;;;4994307;28;20197;-66
2022/12/08 09:35:08;;;;;;;4.18;3.78;;;15.30;46.50;;;;;;4994475;28;20197;-66
2022/12/08 09:37:35;;;;;;;4.45;4.05;;;15.30;46.70;;;;;;4994083;28;20262;-66
2022/12/08 09:40:02;;;;;;;4.10;3.70;;;15.40;46.80;;;;;;4994223;28;20221;-66
2022/12/08 09:42:35;;;;;;;4.10;3.70;;;15.40;46.80;;;;;;4994043;28;20189;-66
2022/12/08 09:45:05;;;;;;;4.45;4.05;;;15.40;46.60;;;;;;4995172;28;20205;-66
2022/12/08 09:47:34;;;;;;;4.80;4.30;;;15.40;46.50;;;;;;4995192;28;20228;-66
2022/12/08 09:50:03;;;;;;;5.10;4.30;;;15.40;46.50;;;;;;4993799;28;20221;-66
2022/12/08 09:52:33;;;;;;;4.82;4.32;;;15.40;46.50;;;;;;4993799;28;20209;-66
2022/12/08 09:55:03;;;;;;;4.28;3.97;;;15.40;46.50;;;;;;4993790;28;20225;-66
2022/12/08 09:57:31;;;;;;;5.03;4.50;;;15.40;46.60;;;;;;4995208;28;20637;-66
2022/12/08 10:00:01;;;;;;;4.47;4.07;;;15.40;46.20;;;;;;4993628;28;20696;-66
2022/12/08 10:02:32;;;;;;;6.40;4.47;;;15.50;46.60;;;;;;4994992;28;20547;-66
2022/12/08 10:04:59;;;;;;;4.00;3.60;;;15.50;46.70;;;;;;4994665;28;20193;-66
2022/12/08 10:07:30;;;;;;;4.97;4.10;;;15.50;46.60;;;;;;4995068;28;20248;-66
2022/12/08 10:10:01;;;;;;;4.55;4.15;;;15.50;46.40;;;;;;4993743;28;20217;-66
2022/12/08 10:12:42;;;;;;;4.28;3.88;;;15.60;46.70;;;;;;4994581;28;20205;-66
2022/12/08 10:15:22;;;;;;;4.35;3.50;;;15.60;46.70;;;;;;4993780;28;20193;-66
2022/12/08 10:17:50;;;;;;;4.28;3.80;;;15.60;46.70;;;;;;4994071;28;20204;-66
2022/12/08 10:20:17;;;;;;;4.40;4.00;;;15.60;46.30;;;;;;4992871;28;20588;-66
2022/12/08 10:22:45;;;;;;;4.25;3.53;;;15.60;46.40;;;;;;4993326;28;20229;-66
2022/12/08 10:25:17;;;;;;;4.43;3.85;;;15.60;46.70;;;;;;4994400;28;20209;-66
2022/12/08 10:27:46;;;;;;;4.10;3.70;;;15.60;46.70;;;;;;4994068;28;20276;-66
2022/12/08 10:30:14;;;;;;;3.65;3.33;;;15.70;46.80;;;;;;4993445;28;20319;-66
2022/12/08 10:32:42;;;;;;;4.88;4.10;;;15.70;46.60;;;;;;4994115;28;20217;-66
2022/12/08 10:35:10;;;;;;;3.90;3.60;;;15.70;46.50;;;;;;4992937;28;20201;-66
2022/12/08 10:37:37;;;;;;;4.30;3.90;;;15.70;46.30;;;;;;4994169;28;20280;-66
2022/12/08 10:40:09;;;;;;;4.57;4.18;;;15.70;46.20;;;;;;4992786;28;20256;-66
2022/12/08 10:42:37;;;;;;;4.55;3.97;;;15.70;46.20;;;;;;4994146;28;20194;-66
2022/12/08 10:45:20;;;;;;;5.63;5.13;;;15.70;46.20;;;;;;4992758;28;20197;-66
2022/12/08 10:47:57;;;;;;;4.53;4.13;;;15.70;46.10;;;;;;4993433;28;20575;-66
2022/12/08 10:50:32;;;;;;;3.72;3.42;;;15.70;46.20;;;;;;4993535;28;20224;-66
2022/12/08 10:52:59;;;;;;;4.13;3.75;;;15.70;46.20;;;;;;4994551;28;20182;-66
2022/12/08 10:55:27;;;;;;;4.28;3.88;;;15.80;46.20;;;;;;4992840;28;20564;-66
2022/12/08 10:57:53;;;;;;;3.83;3.53;;;15.80;46.30;;;;;;4994231;28;20193;-66
2022/12/08 11:00:24;;;;;;;3.90;3.60;;;15.80;46.30;;;;;;4994122;28;20232;-66
2022/12/08 11:02:57;;;;;;;4.13;3.80;;;15.80;46.40;;;;;;4993073;28;20193;-66
2022/12/08 11:05:27;;;;;;;3.72;3.20;;;15.90;46.50;;;;;;4993464;28;20569;-66
2022/12/08 11:07:54;;;;;;;3.70;3.28;;;15.90;46.70;;;;;;4992794;28;20652;-66
2022/12/08 11:10:30;;;;;;;3.40;3.10;;;15.90;46.70;;;;;;4994008;28;20244;-66
2022/12/08 11:13:00;;;;;;;4.20;3.80;;;16.00;46.70;;;;;;4992748;28;20352;-66
2022/12/08 11:15:31;;;;;;;3.90;3.50;;;16.00;46.50;;;;;;4992554;28;20272;-66
2022/12/08 11:18:00;;;;;;;3.50;3.20;;;16.00;46.70;;;;;;4992741;28;20229;-66
2022/12/08 11:20:27;;;;;;;3.10;2.80;;;16.10;46.50;;;;;;4992658;28;20755;-66
2022/12/08 11:22:55;;;;;;;3.40;3.10;;;16.10;46.60;;;;;;4992554;28;20202;-66
2022/12/08 11:25:23;;;;;;;3.45;3.15;;;16.20;46.20;;;;;;4992709;28;20207;-66
2022/12/08 11:27:51;;;;;;;3.50;3.20;;;16.20;46.30;;;;;;4992585;28;20657;-66
2022/12/08 11:30:20;;;;;;;3.20;2.90;;;16.30;46.30;;;;;;4992646;28;20221;-66
2022/12/08 11:32:49;;;;;;;3.20;2.90;;;16.30;46.00;;;;;;4993630;28;20209;-66
2022/12/08 11:35:21;;;;;;;3.50;3.20;;;16.30;46.10;;;;;;4996558;28;20201;-66
2022/12/08 11:37:48;;;;;;;2.97;2.78;;;16.40;46.00;;;;;;4996605;28;20221;-66
2022/12/08 11:40:17;;;;;;;3.50;3.20;;;16.40;46.00;;;;;;4996387;28;20248;-66
2022/12/08 11:42:51;;;;;;;3.20;2.90;;;16.40;46.00;;;;;;4996826;28;20201;-66
2022/12/08 11:45:20;;;;;;;3.20;2.90;;;16.40;45.40;;;;;;4996285;28;20193;-66
2022/12/08 11:47:52;;;;;;;3.70;3.20;;;16.50;45.70;;;;;;4996733;28;20226;-66
2022/12/08 11:50:42;;;;;;;3.60;3.30;;;16.50;45.60;;;;;;4997756;28;20240;-66
2022/12/08 11:53:14;;;;;;;3.20;2.90;;;16.50;45.50;;;;;;4996881;28;20205;-66
2022/12/08 11:55:43;;;;;;;3.03;2.70;;;16.60;45.40;;;;;;4996747;28;20261;-66
2022/12/08 11:58:13;;;;;;;2.90;2.70;;;16.60;45.60;;;;;;4997076;28;20221;-66
2022/12/08 12:00:40;;;;;;;2.72;2.53;;;16.60;45.40;;;;;;4997371;28;20197;-66
2022/12/08 12:03:11;;;;;;;2.90;2.65;;;16.70;45.30;;;;;;4997589;28;20568;-66
2022/12/08 12:05:42;;;;;;;3.13;2.83;;;16.80;45.40;;;;;;4996037;28;20197;-67
2022/12/08 12:08:14;;;;;;;2.90;2.70;;;16.80;45.50;;;;;;4996756;28;20276;-66
2022/12/08 12:10:52;;;;;;;2.90;2.67;;;16.90;45.40;;;;;;4996028;28;20635;-66
2022/12/08 12:13:31;;;;;;;3.13;2.85;;;16.90;45.20;;;;;;4996411;28;20200;-66
2022/12/08 12:16:32;;;;;;;2.80;2.58;;;16.90;44.90;;;;;;4995740;28;20193;-66
2022/12/08 12:19:01;;;;;;;3.10;2.80;;;17.00;45.10;;;;;;4937160;29;20222;-66
2022/12/08 12:21:32;;;;;;;2.78;2.58;;;17.00;44.80;;;;;;4965025;28;20201;-66
2022/12/08 12:24:00;;;;;;;2.90;2.70;;;17.00;45.20;;;;;;4996333;28;20209;-66
2022/12/08 12:26:28;;;;;;;3.22;2.67;;;17.00;44.70;;;;;;4995365;28;20217;-66
2022/12/08 12:28:57;;;;;;;2.70;2.50;;;17.00;44.90;;;;;;4996637;28;20220;-66
2022/12/08 12:31:27;;;;;;;2.90;2.70;;;17.00;44.90;;;;;;4995260;28;20198;-66
2022/12/08 12:33:57;;;;;;;3.10;2.90;;;17.10;45.00;;;;;;4995206;28;20194;-66
2022/12/08 12:36:25;;;;;;;3.10;2.78;;;17.10;44.90;;;;;;4995043;28;20201;-66
2022/12/08 12:39:02;;;;;;;3.10;2.80;;;17.10;44.60;;;;;;4995119;28;20231;-66
2022/12/08 12:41:34;;;;;;;3.60;2.80;;;17.10;44.70;;;;;;4980261;28;20194;-66
2022/12/08 12:44:12;;;;;;;3.03;2.80;;;17.10;44.60;;;;;;4994635;28;20204;-66
2022/12/08 12:46:56;;;;;;;3.08;2.88;;;17.10;44.50;;;;;;4994477;28;20225;-66
2022/12/08 12:49:51;;;;;;;2.80;2.60;;;17.20;44.50;;;;;;4994568;28;20702;-66
2022/12/08 12:52:37;;;;;;;2.88;2.50;;;17.20;44.50;;;;;;4961068;28;20201;-66
2022/12/08 12:55:27;;;;;;;2.80;2.60;;;17.20;44.70;;;;;;4993981;28;20201;-66
2022/12/08 12:57:55;;;;;;;2.70;2.50;;;17.20;44.50;;;;;;4994681;28;20252;-66
2022/12/08 13:00:23;;;;;;;3.10;2.80;;;17.20;44.70;;;;;;4995724;28;20236;-66
2022/12/08 13:02:50;;;;;;;2.78;2.50;;;17.20;44.70;;;;;;4994904;28;20193;-66